• Join FlightAware (Why Join?)
  • Login
  • US Flag 
08:46AM EST


 

Airport Tracker/Info


-or-


 

Live Flight TrackerFlight Track Log ✈ GTI37 ✈ 27-Jun-2013 ✈ KMIA - SBEG / MAO

Flight Track Log - Related Links

Times and Time Zones

All times are in EDT time to prevent confusion due to time zone crossing. See the GTI37 flight status page for this flight to view local times or setup timezone preferences in your user account.

Time Position Orientation Groundspeed Altitude Reporting Facility
EDT Latitude Longitude Course Direction KTS MPH feet Rate Location/Type
10:43AM 25.7900 -80.3060 North 11 13  Level FlightAware
10:44AM 25.7910 -80.3060 360° North 10 12 60 Level FlightAware
10:47AM 25.5592 -80.1110 100° East  Level Estimated
10:48AM 25.4561 -80.0246 110° East  Level Estimated
10:49AM 25.3529 -79.9383 105° East  Level Estimated
10:50AM 25.2497 -79.8522 104° East  Level Estimated
10:51AM 25.1464 -79.7662 105° East  Level Estimated
10:52AM 25.0431 -79.6804 90° East  Level Estimated
10:52AM 25.7880 -80.3060 180° South 20 23  Level FlightAware
10:52AM 25.7880 -80.3070 270° West 22 25 120 Level FlightAware
10:53AM 25.7880 -80.3110 270° West 15 17 120 Level FlightAware
10:54AM 25.7880 -80.3130 270° West 17 20 180 Level FlightAware
10:54AM 25.7880 -80.3140 270° West 27 31 180 Level FlightAware
10:54AM 25.7880 -80.3150 270° West 23 26 180 Level FlightAware
10:57AM 25.5579 -80.1214 100° East  Level Estimated
10:57AM 25.7870 -80.3150 100° East 22 25  Level FlightAware
10:59AM 25.7870 -80.2930 100° East 175 201 420 Level FlightAware
11:00AM 25.5295 -80.0983 100° East  Level Estimated
11:00AM 25.7840 -80.2560 95° East 187 215 1,400  Level FlightAware
11:01AM 25.7670 -80.2150 115° Southeast 243 280 2,200 1,440 Climbing FlightAware
11:01AM 25.7520 -80.1780 114° Southeast 270 311 3,100 2,460 Climbing FlightAware
11:02AM 25.7380 -80.1450 115° Southeast 274 315 4,500 2,940 Climbing FlightAware
11:02AM 25.7210 -80.1040 115° Southeast 288 331 5,900 2,820 Climbing FlightAware
11:03AM 25.7070 -80.0640 111° Southeast 290 334 7,300 2,820 Climbing FlightAware
11:03AM 25.6990 -80.0230 102° East 300 345 8,600 2,340 Climbing FlightAware
11:03AM 25.6960 -80.0060 101° East 304 350 9,000 2,340 Climbing FlightAware
11:04AM 25.6820 -79.9370 103° East 323 372 10,800 1,860 Climbing FlightAware
11:05AM 25.6690 -79.8670 102° East 368 423 11,600 1,560 Climbing FlightAware
11:06AM 25.6530 -79.7820 102° East 399 459 13,000 2,220 Climbing FlightAware
11:06AM 25.6370 -79.7040 103° East 412 474 14,700 2,580 Climbing FlightAware
11:07AM 25.6190 -79.6100 102° East 424 488 16,700 2,520 Climbing FlightAware
11:08AM 25.6010 -79.5150 102° East 439 505 18,400 2,280 Climbing FlightAware
11:09AM 25.5730 -79.3710 102° East 455 524 20,900 2,160 Climbing FlightAware
11:09AM 25.5520 -79.2850 105° East 462 532 22,200 1,920 Climbing FlightAware
11:10AM 25.4880 -79.1880 126° Southeast 479 551 23,700 1,620 Climbing FlightAware
11:11AM 25.4360 -79.1220 131° Southeast 491 565 24,600 600 Climbing FlightAware
11:12AM 25.3680 -79.0350 131° Southeast 491 565 24,600  Level FlightAware
11:13AM 25.3060 -78.9560 131° Southeast 491 565 24,600  Level FlightAware
11:13AM 25.2440 -78.8770 131° Southeast 491 565 24,600  Level FlightAware
11:14AM 25.1890 -78.8080 131° Southeast 491 565 24,600 4,680 Level FlightAware
11:15AM 25.1294 -78.6194 131° Southeast 501 577 31,800 4,920 Climbing Miami Center
11:16AM 25.0808 -78.4764 111° Southeast 501 577 33,600 1,560 Climbing Miami Center
11:17AM 25.0322 -78.3336 111° Southeast 501 577 35,000 660 Climbing Miami Center
11:18AM 24.9814 -78.1956 112° Southeast 489 563 35,000  Level Miami Center
11:19AM 24.8925 -78.0822 131° Southeast 481 554 35,000  Level Miami Center
11:20AM 24.7928 -77.9758 136° Southeast 487 560 35,000  Level Miami Center
11:21AM 24.6975 -77.8675 134° Southeast 487 560 35,000  Level Miami Center
11:22AM 24.6019 -77.7617 135° Southeast 487 560 35,000  Level Miami Center
11:23AM 24.5067 -77.6514 134° Southeast 487 560 35,000  Level Miami Center
11:24AM 24.4131 -77.5708 142° Southeast 487 560 35,000  Level Miami Center
11:25AM 24.3131 -77.4403 130° Southeast 496 571 35,000  Level Miami Center
11:26AM 24.2175 -77.3306 134° Southeast 491 565 35,000  Level Miami Center
11:27AM 24.1217 -77.2231 134° Southeast 485 558 35,000  Level Miami Center
11:28AM 24.0214 -77.1158 136° Southeast 485 558 35,000  Level Miami Center
11:29AM 23.9233 -77.0089 135° Southeast 485 558 35,000  Level Miami Center
11:30AM 23.8272 -76.9044 135° Southeast 485 558 35,000  Level Miami Center
11:31AM 23.7292 -76.7953 134° Southeast 490 564 35,000  Level Miami Center
11:32AM 23.6308 -76.6864 135° Southeast 490 564 35,000  Level Miami Center
11:33AM 23.5303 -76.5800 136° Southeast 490 564 35,000  Level Miami Center
11:34AM 23.4319 -76.4739 135° Southeast 490 564 35,000  Level Miami Center
11:35AM 23.3333 -76.3678 135° Southeast 490 564 35,000  Level Miami Center
11:36AM 23.2325 -76.2575 135° Southeast 495 570 35,000  Level Miami Center
11:37AM 23.1339 -76.1542 136° Southeast 495 570 35,000  Level Miami Center
11:38AM 23.0353 -76.0461 135° Southeast 495 570 35,000  Level Miami Center
11:39AM 22.9342 -75.9386 136° Southeast 495 570 35,000  Level Miami Center
11:40AM 22.8353 -75.8311 135° Southeast 495 570 35,000  Level Miami Center
11:41AM 22.7364 -75.7261 136° Southeast 500 575 35,000  Level Miami Center
11:42AM 22.6375 -75.6211 136° Southeast 500 575 35,000  Level Miami Center
11:43AM 22.5383 -75.5164 136° Southeast 500 575 35,000  Level Miami Center
11:44AM 22.4369 -75.4094 136° Southeast 500 575 35,000  Level Miami Center
11:45AM 22.3400 -75.3028 134° Southeast 500 575 35,000  Level Miami Center
11:46AM 22.2386 -75.1986 136° Southeast 500 575 35,000  Level Miami Center
11:47AM 22.1411 -75.0944 135° Southeast 500 575 35,000  Level Miami Center
11:48AM 22.0378 -74.9928 138° Southeast 500 575 35,000  Level Miami Center
11:49AM 21.9319 -74.8936 139° Southeast 500 575 35,000  Level Miami Center
11:50AM 21.8264 -74.7967 140° Southeast 500 575 35,000  Level Miami Center
11:51AM 21.7161 -74.6800 135° Southeast 500 575 35,000 -60 Level Miami Center
11:52AM 21.6081 -74.5814 140° Southeast 500 575 34,900 -60 Descending Miami Center
11:53AM 21.5042 -74.4806 138° Southeast 500 575 34,900  Level Miami Center
11:54AM 21.3983 -74.3819 139° Southeast 500 575 35,000  Climbing Miami Center
11:55AM 21.2903 -74.2792 138° Southeast 505 581 35,000 -60 Level Miami Center
11:56AM 21.1861 -74.1833 139° Southeast 505 581 34,900 -60 Descending Miami Center
11:57AM 21.0800 -74.0853 139° Southeast 505 581 34,900  Level Miami Center
11:58AM 20.9717 -73.9831 139° Southeast 510 587 34,900  Level Miami Center
11:59AM 20.8656 -73.8833 139° Southeast 510 587 35,000  Climbing Miami Center
12:00PM 20.7614 -73.7878 139° Southeast 510 587 35,000  Level Miami Center
12:01PM 20.6636 -73.6992 140° Southeast 510 587 35,000  Level Miami Center
12:02PM 20.5594 -73.6019 139° Southeast 510 587 35,000  Level Miami Center
12:03PM 20.4531 -73.5025 139° Southeast 515 593 35,000 -60 Level Miami Center
12:04PM 20.3467 -73.4056 139° Southeast 515 593 34,900  Descending Miami Center
12:05PM 20.2400 -73.3089 140° Southeast 515 593 35,000  Climbing Miami Center
12:06PM 20.1336 -73.2122 140° Southeast 509 586 35,000 60 Level Miami Center
12:08PM 19.9616 -73.0744 143° Southeast  Level FlightAware Approximate
12:15PM 19.2306 -72.4928 143° Southeast  Level FlightAware Approximate
12:16PM 19.1260 -72.4101 143° Southeast  Level FlightAware Approximate
12:17PM 19.0214 -72.3276 143° Southeast  Level FlightAware Approximate
12:18PM 18.9167 -72.2451 143° Southeast  Level FlightAware Approximate
12:19PM 18.8120 -72.1628 143° Southeast  Level FlightAware Approximate
12:20PM 18.7073 -72.0805 143° Southeast  Level FlightAware Approximate
12:21PM 18.6026 -71.9984 143° Southeast  Level FlightAware Approximate
12:22PM 18.4986 -71.9152 137° Southeast  Level FlightAware Approximate
12:23PM 18.3960 -71.8307 148° Southeast  Level FlightAware Approximate
12:24PM 18.2857 -71.7571 148° Southeast  Level FlightAware Approximate
12:25PM 18.1787 -71.6786 144° Southeast  Level FlightAware Approximate
12:26PM 18.0732 -71.5978 144° Southeast  Level FlightAware Approximate
12:27PM 17.9677 -71.5170 144° Southeast  Level FlightAware Approximate
12:27PM 17.8210 -71.3280 144° Southeast 510 587 37,000  Level FlightAware
12:28PM 17.7190 -71.2430 142° Southeast 510 587 37,000  Level FlightAware
12:28PM 17.6570 -71.1930 142° Southeast 510 587 37,000  Level FlightAware
12:29PM 17.5620 -71.1150 142° Southeast 510 587 37,000  Level FlightAware
12:32PM 17.3260 -70.9781 151° Southeast  Level FlightAware Approximate
12:33PM 17.2118 -70.9120 151° Southeast  Level FlightAware Approximate
12:33PM 17.2300 -70.8430 151° Southeast 510 587 37,000  Level FlightAware
12:34PM 17.1500 -70.7770 142° Southeast 510 587 37,000  Level FlightAware
12:34PM 17.0930 -70.7310 142° Southeast 510 587 37,000 -60 Level FlightAware
12:37PM 16.8607 -70.5748 147° Southeast  Level FlightAware Approximate
12:38PM 16.7509 -70.5011 147° Southeast  Level FlightAware Approximate
12:39PM 16.6410 -70.4275 147° Southeast  Level FlightAware Approximate
12:40PM 16.5312 -70.3540 147° Southeast  Level FlightAware Approximate
12:41PM 16.4213 -70.2806 147° Southeast  Level FlightAware Approximate
12:42PM 16.3114 -70.2072 147° Southeast  Level FlightAware Approximate
12:43PM 16.2014 -70.1340 147° Southeast  Level FlightAware Approximate
12:44PM 16.0915 -70.0608 147° Southeast  Level FlightAware Approximate
12:45PM 15.9809 -69.9857 144° Southeast  Level FlightAware Approximate
12:46PM 15.8748 -69.9066 144° Southeast  Level FlightAware Approximate
12:47PM 15.7687 -69.8276 144° Southeast  Level FlightAware Approximate
12:48PM 15.6626 -69.7486 144° Southeast  Level FlightAware Approximate
12:49PM 15.5565 -69.6698 144° Southeast  Level FlightAware Approximate
12:50PM 15.4504 -69.5910 144° Southeast  Level FlightAware Approximate
12:51PM 15.3442 -69.5123 144° Southeast  Level FlightAware Approximate
12:52PM 15.2380 -69.4337 144° Southeast  Level FlightAware Approximate
12:53PM 15.1317 -69.3551 144° Southeast  Level FlightAware Approximate
12:54PM 15.0255 -69.2767 145° Southeast  Level FlightAware Approximate
12:55PM 14.9192 -69.1983 145° Southeast  Level FlightAware Approximate
12:56PM 14.8129 -69.1200 145° Southeast  Level FlightAware Approximate
12:57PM 14.7065 -69.0417 145° Southeast  Level FlightAware Approximate
12:58PM 14.6002 -68.9636 145° Southeast  Level FlightAware Approximate
12:59PM 14.4937 -68.8855 145° Southeast  Level FlightAware Approximate
01:00PM 14.3873 -68.8075 145° Southeast  Level FlightAware Approximate
01:01PM 14.2809 -68.7296 145° Southeast  Level FlightAware Approximate
01:02PM 14.1744 -68.6517 145° Southeast  Level FlightAware Approximate
01:03PM 14.0679 -68.5740 145° Southeast  Level FlightAware Approximate
01:04PM 13.9614 -68.4962 145° Southeast  Level FlightAware Approximate
01:05PM 13.8548 -68.4186 145° Southeast  Level FlightAware Approximate
01:06PM 13.7483 -68.3410 145° Southeast  Level FlightAware Approximate
01:07PM 13.6417 -68.2635 145° Southeast  Level FlightAware Approximate
01:08PM 13.5351 -68.1861 145° Southeast  Level FlightAware Approximate
01:09PM 13.4284 -68.1088 145° Southeast  Level FlightAware Approximate
01:10PM 13.3217 -68.0315 145° Southeast  Level FlightAware Approximate
01:11PM 13.2150 -67.9542 145° Southeast  Level FlightAware Approximate
01:12PM 13.1083 -67.8771 145° Southeast  Level FlightAware Approximate
01:13PM 13.0016 -67.8000 145° Southeast  Level FlightAware Approximate
01:14PM 12.8948 -67.7230 145° Southeast  Level FlightAware Approximate
01:15PM 12.7881 -67.6459 145° Southeast  Level FlightAware Approximate
01:16PM 12.6816 -67.5686 145° Southeast  Level FlightAware Approximate
01:17PM 12.5751 -67.4914 145° Southeast  Level FlightAware Approximate
01:18PM 12.4685 -67.4142 145° Southeast  Level FlightAware Approximate
01:19PM 12.3619 -67.3370 145° Southeast  Level FlightAware Approximate
01:20PM 12.2554 -67.2600 145° Southeast  Level FlightAware Approximate
01:21PM 12.1487 -67.1830 145° Southeast  Level FlightAware Approximate
01:22PM 12.0421 -67.1060 145° Southeast  Level FlightAware Approximate
01:23PM 11.9354 -67.0292 145° Southeast  Level FlightAware Approximate
01:24PM 11.8287 -66.9523 145° Southeast  Level FlightAware Approximate
01:25PM 11.7220 -66.8756 145° Southeast  Level FlightAware Approximate
01:26PM 11.6153 -66.7989 145° Southeast  Level FlightAware Approximate
01:27PM 11.5086 -66.7222 145° Southeast  Level FlightAware Approximate
01:28PM 11.4018 -66.6457 145° Southeast  Level FlightAware Approximate
01:29PM 11.2950 -66.5691 145° Southeast  Level FlightAware Approximate
01:30PM 11.1882 -66.4927 145° Southeast  Level FlightAware Approximate
01:31PM 11.0814 -66.4163 145° Southeast  Level FlightAware Approximate
01:32PM 10.9746 -66.3399 145° Southeast  Level FlightAware Approximate
01:33PM 10.8677 -66.2636 145° Southeast  Level FlightAware Approximate
01:34PM 10.7608 -66.1874 145° Southeast  Level FlightAware Approximate
01:35PM 10.6539 -66.1112 145° Southeast  Level FlightAware Approximate
01:36PM 10.5470 -66.0350 145° Southeast  Level FlightAware Approximate
01:37PM 10.4401 -65.9590 145° Southeast  Level FlightAware Approximate
01:38PM 10.3331 -65.8829 145° Southeast  Level FlightAware Approximate
01:39PM 10.2262 -65.8070 145° Southeast  Level FlightAware Approximate
01:40PM 10.1192 -65.7310 145° Southeast  Level FlightAware Approximate
01:41PM 10.0122 -65.6551 145° Southeast  Level FlightAware Approximate
01:42PM 9.9052 -65.5793 145° Southeast  Level FlightAware Approximate
01:43PM 9.7981 -65.5035 145° Southeast  Level FlightAware Approximate
01:44PM 9.6910 -65.4278 145° Southeast  Level FlightAware Approximate
01:45PM 9.5840 -65.3521 145° Southeast  Level FlightAware Approximate
01:46PM 9.4769 -65.2765 145° Southeast  Level FlightAware Approximate
01:47PM 9.3698 -65.2009 145° Southeast  Level FlightAware Approximate
01:48PM 9.2626 -65.1254 145° Southeast  Level FlightAware Approximate
01:49PM 9.1555 -65.0499 145° Southeast  Level FlightAware Approximate
01:50PM 9.0483 -64.9745 145° Southeast  Level FlightAware Approximate
01:51PM 8.9412 -64.8991 145° Southeast  Level FlightAware Approximate
01:52PM 8.8340 -64.8237 145° Southeast  Level FlightAware Approximate
01:53PM 8.7268 -64.7484 145° Southeast  Level FlightAware Approximate
01:54PM 8.6195 -64.6731 145° Southeast  Level FlightAware Approximate
01:55PM 8.5123 -64.5979 145° Southeast  Level FlightAware Approximate
01:56PM 8.4051 -64.5228 145° Southeast  Level FlightAware Approximate
01:57PM 8.2978 -64.4476 145° Southeast  Level FlightAware Approximate
01:58PM 8.1905 -64.3725 145° Southeast  Level FlightAware Approximate
01:59PM 8.0832 -64.2974 145° Southeast  Level FlightAware Approximate
02:00PM 7.9759 -64.2224 145° Southeast  Level FlightAware Approximate
02:01PM 7.8686 -64.1475 145° Southeast  Level FlightAware Approximate
02:02PM 7.7613 -64.0725 145° Southeast  Level FlightAware Approximate
02:03PM 7.6540 -63.9976 145° Southeast  Level FlightAware Approximate
02:04PM 7.5466 -63.9227 145° Southeast  Level FlightAware Approximate
02:05PM 7.4392 -63.8479 145° Southeast  Level FlightAware Approximate
02:06PM 7.3318 -63.7731 145° Southeast  Level FlightAware Approximate
02:07PM 7.2245 -63.6984 145° Southeast  Level FlightAware Approximate
02:08PM 7.1170 -63.6237 145° Southeast  Level FlightAware Approximate
02:09PM 7.0096 -63.5490 145° Southeast  Level FlightAware Approximate
02:10PM 6.9022 -63.4743 145° Southeast  Level FlightAware Approximate
02:11PM 6.7948 -63.3997 145° Southeast  Level FlightAware Approximate
02:12PM 6.6873 -63.3251 145° Southeast  Level FlightAware Approximate
02:13PM 6.5798 -63.2506 145° Southeast  Level FlightAware Approximate
02:14PM 6.4724 -63.1761 145° Southeast  Level FlightAware Approximate
02:15PM 6.3649 -63.1016 145° Southeast  Level FlightAware Approximate
02:16PM 6.2574 -63.0272 145° Southeast  Level FlightAware Approximate
02:17PM 6.1499 -62.9527 145° Southeast  Level FlightAware Approximate
02:18PM 6.0423 -62.8783 145° Southeast  Level FlightAware Approximate
02:19PM 5.9348 -62.8040 145° Southeast  Level FlightAware Approximate
02:20PM 5.8273 -62.7297 145° Southeast  Level FlightAware Approximate
02:21PM 5.7197 -62.6554 145° Southeast  Level FlightAware Approximate
02:22PM 5.6122 -62.5811 145° Southeast  Level FlightAware Approximate
02:23PM 5.5046 -62.5068 146° Southeast  Level FlightAware Approximate
02:24PM 5.3970 -62.4326 146° Southeast  Level FlightAware Approximate
02:25PM 5.2894 -62.3584 146° Southeast  Level FlightAware Approximate
02:26PM 5.1818 -62.2842 146° Southeast  Level FlightAware Approximate
02:27PM 5.0742 -62.2101 146° Southeast  Level FlightAware Approximate
02:28PM 4.9666 -62.1360 146° Southeast  Level FlightAware Approximate
02:29PM 4.8590 -62.0619 146° Southeast  Level FlightAware Approximate
02:30PM 4.7514 -61.9878 146° Southeast  Level FlightAware Approximate
02:31PM 4.6438 -61.9138 146° Southeast  Level FlightAware Approximate
02:32PM 4.5361 -61.8397 146° Southeast  Level FlightAware Approximate
02:33PM 4.4285 -61.7657 146° Southeast  Level FlightAware Approximate
02:34PM 4.3208 -61.6917 146° Southeast  Level FlightAware Approximate
02:35PM 4.2131 -61.6178 146° Southeast  Level FlightAware Approximate
02:36PM 4.1055 -61.5438 146° Southeast  Level FlightAware Approximate
02:37PM 3.9978 -61.4699 146° Southeast  Level FlightAware Approximate
02:38PM 3.8901 -61.3960 146° Southeast  Level FlightAware Approximate
02:39PM 3.7824 -61.3222 146° Southeast  Level FlightAware Approximate
02:40PM 3.6747 -61.2483 146° Southeast  Level FlightAware Approximate
02:41PM 3.5670 -61.1744 146° Southeast  Level FlightAware Approximate
02:42PM 3.4593 -61.1006 146° Southeast  Level FlightAware Approximate
02:43PM 3.3516 -61.0268 146° Southeast  Level FlightAware Approximate
02:44PM 3.2439 -60.9530 146° Southeast  Level FlightAware Approximate
02:45PM 3.1361 -60.8792 146° Southeast  Level FlightAware Approximate
02:46PM 3.0284 -60.8055 146° Southeast  Level FlightAware Approximate
02:47PM 2.9207 -60.7317 146° Southeast  Level FlightAware Approximate
02:48PM 2.8054 -60.6785 174° South  Level FlightAware Approximate
02:49PM 2.6756 -60.6645 174° South  Level FlightAware Approximate
02:50PM 2.5459 -60.6504 174° South  Level FlightAware Approximate
02:51PM 2.4161 -60.6364 174° South  Level FlightAware Approximate
02:52PM 2.2864 -60.6223 174° South  Level FlightAware Approximate
02:53PM 2.1566 -60.6083 174° South  Level FlightAware Approximate
02:54PM 2.0268 -60.5942 174° South  Level FlightAware Approximate
02:55PM 1.8971 -60.5802 174° South  Level FlightAware Approximate
02:56PM 1.7673 -60.5662 174° South  Level FlightAware Approximate
02:57PM 1.6376 -60.5522 174° South  Level FlightAware Approximate
02:58PM 1.5079 -60.5381 174° South  Level FlightAware Approximate
02:59PM 1.3781 -60.5241 174° South  Level FlightAware Approximate
03:00PM 1.2484 -60.5101 174° South  Level FlightAware Approximate
03:01PM 1.1186 -60.4960 174° South  Level FlightAware Approximate
03:02PM 0.9888 -60.4820 174° South  Level FlightAware Approximate
03:03PM 0.8591 -60.4680 174° South  Level FlightAware Approximate
03:04PM 0.7293 -60.4540 174° South  Level FlightAware Approximate
03:05PM 0.5996 -60.4400 174° South  Level FlightAware Approximate
03:06PM 0.4699 -60.4259 174° South  Level FlightAware Approximate
03:07PM 0.3401 -60.4119 174° South  Level FlightAware Approximate
03:08PM 0.2104 -60.3979 174° South  Level FlightAware Approximate
03:09PM 0.0806 -60.3839 174° South  Level FlightAware Approximate
03:10PM -0.0492 -60.3699 174° South  Level FlightAware Approximate
03:11PM -0.1789 -60.3558 174° South  Level FlightAware Approximate
03:12PM -0.3086 -60.3418 174° South  Level FlightAware Approximate
03:12PM -1.1960 -60.2550 174° South 491 565 32,200  Level FlightAware
03:13PM -0.4384 -60.3278 174° South  Level FlightAware Approximate
03:13PM -1.3000 -60.2450 175° South 478 550 29,600  Level FlightAware
03:13PM -1.3960 -60.2340 173° South 470 541 27,900 -2,220 Descending FlightAware
03:14PM -1.4950 -60.2230 174° South 462 532 26,300 -2,160 Descending FlightAware
03:17PM -1.8044 -60.1828 173° South  Level FlightAware Approximate
03:18PM -1.9340 -60.1679 173° South  Level FlightAware Approximate
03:19PM -2.0637 -60.1529 173° South  Level FlightAware Approximate
03:20PM -2.1933 -60.1380 173° South  Level FlightAware Approximate
03:20PM -2.1370 -60.1800 173° South 385 443 14,300  Level FlightAware
03:20PM -2.2110 -60.1780 178° South 345 397 13,100 -1,500 Descending FlightAware
03:21PM -2.3140 -60.1730 177° South 340 391 11,800 -960 Descending FlightAware
03:22PM -2.3470 -60.1720 178° South 340 391 11,800 -1,620 Level FlightAware
03:23PM -2.4250 -60.1710 179° South 310 357 10,000 -1,800 Descending FlightAware
03:23PM -2.4510 -60.1700 178° South 293 337 10,000 -420 Level FlightAware
03:23PM -2.4860 -60.1690 178° South 280 322 9,700 -960 Descending FlightAware
03:24PM -2.5190 -60.1670 177° South 279 321 9,200 -1,380 Descending FlightAware
03:24PM -2.5600 -60.1660 179° South 274 315 8,400 -1,500 Descending FlightAware
03:25PM -2.6200 -60.1640 178° South 271 312 7,200 -1,320 Descending FlightAware
03:28PM -2.9231 -60.0554 169° South  Level FlightAware Approximate
03:28PM -2.8170 -60.1580 169° South 241 277 3,800  Level FlightAware
03:28PM -2.8450 -60.1570 178° South 239 275 3,600 -420 Descending FlightAware
03:29PM -2.8850 -60.1560 179° South 229 264 3,400 -300 Descending FlightAware
03:29PM -2.9140 -60.1550 178° South 218 251 3,300 -600 Descending FlightAware
03:32PM -3.0167 -60.0500 180° South  Level FlightAware Approximate
03:33PM -3.0386 -60.0497 180° South  Level Estimated
03:33PM -3.0390 -60.0850 180° South 150 173 900  Level FlightAware
03:34PM -3.0386 -60.0497 180° South  Level Estimated
03:34PM -3.0390 -60.0760 90° East 152 175 700  Level FlightAware
03:34PM -3.0380 -60.0510 88° East 149 171 500 -300 Descending FlightAware
03:37PM -3.0386 -60.0497 180° South  Level Estimated
03:38PM -3.0386 -60.0497 180° South  Level Estimated
03:39PM -3.0386 -60.0497 180° South  Level Estimated
03:40PM -3.0386 -60.0497 180° South  Level Estimated
03:41PM -3.0386 -60.0497 180° South  Level Estimated
03:42PM -3.0386 -60.0497 180° South  Level Estimated
03:43PM -3.0386 -60.0497 180° South  Level Estimated
03:44PM -3.0386 -60.0497 180° South  Level Estimated
03:45PM -3.0386 -60.0497 180° South  Level Estimated
03:46PM -3.0386 -60.0497 180° South  Level Estimated
03:47PM -3.0386 -60.0497 180° South  Level Estimated
03:48PM -3.0386 -60.0497 180° South  Level Estimated
03:49PM -3.0386 -60.0497 180° South  Level Estimated
03:50PM -3.0386 -60.0497 180° South  Level Estimated